createdAt,value
2018-12-19T00:00:13.557Z,19.15
2018-12-19T00:00:44.655Z,19.12
2018-12-19T00:01:15.799Z,20.17
2018-12-19T00:01:46.916Z,18.77
2018-12-19T00:02:18.033Z,20.97
2018-12-19T00:02:49.132Z,19.92
2018-12-19T00:03:20.237Z,20.35
2018-12-19T00:03:51.391Z,20.17
2018-12-19T00:04:22.553Z,19.40
2018-12-19T00:04:53.784Z,18.80
2018-12-19T00:05:24.883Z,19.05
2018-12-19T00:05:55.987Z,18.95
2018-12-19T00:06:27.087Z,19.42
2018-12-19T00:06:58.188Z,20.00
2018-12-19T00:07:29.301Z,19.62
2018-12-19T00:08:00.412Z,19.70
2018-12-19T00:08:31.503Z,19.30
2018-12-19T00:09:03.308Z,21.15
2018-12-19T00:09:34.774Z,19.65
2018-12-19T00:10:05.891Z,18.02
2018-12-19T00:10:36.998Z,17.70
2018-12-19T00:11:08.105Z,18.67
2018-12-19T00:11:39.204Z,19.65
2018-12-19T00:12:10.305Z,20.17
2018-12-19T00:12:41.404Z,19.95
2018-12-19T00:13:12.509Z,20.80
2018-12-19T00:13:43.649Z,18.48
2018-12-19T00:14:14.744Z,20.00
2018-12-19T00:14:45.840Z,19.65
2018-12-19T00:15:16.947Z,19.25
2018-12-19T00:15:48.052Z,19.57
2018-12-19T00:16:19.202Z,18.30
2018-12-19T00:16:50.351Z,19.67
2018-12-19T00:17:21.488Z,18.95
2018-12-19T00:17:52.599Z,18.02
2018-12-19T00:18:23.708Z,17.98
2018-12-19T00:18:54.817Z,18.90
2018-12-19T00:19:25.921Z,16.10
2018-12-19T00:19:57.024Z,18.77
2018-12-19T00:20:28.135Z,19.55
2018-12-19T00:20:59.251Z,18.62
2018-12-19T00:21:30.365Z,21.27
2018-12-19T00:22:01.462Z,15.95
2018-12-19T00:22:32.607Z,17.95
2018-12-19T00:23:03.716Z,16.93
2018-12-19T00:23:34.840Z,15.80
2018-12-19T00:24:05.940Z,15.38
2018-12-19T00:24:37.057Z,16.45
2018-12-19T00:25:08.168Z,18.48
2018-12-19T00:25:39.279Z,17.85
2018-12-19T00:26:10.387Z,17.95
2018-12-19T00:26:41.492Z,18.37
2018-12-19T00:27:12.608Z,17.27
2018-12-19T00:27:44.437Z,18.90
2018-12-19T00:28:15.553Z,17.23
2018-12-19T00:28:46.657Z,17.20
2018-12-19T00:29:17.770Z,17.85
2018-12-19T00:29:48.876Z,18.52
2018-12-19T00:30:19.986Z,17.25
2018-12-19T00:30:51.108Z,16.27
2018-12-19T00:31:22.208Z,17.15
2018-12-19T00:31:53.323Z,17.62
2018-12-19T00:32:24.430Z,17.65
2018-12-19T00:32:55.574Z,17.60
2018-12-19T00:33:26.725Z,16.97
2018-12-19T00:33:57.824Z,16.65
2018-12-19T00:34:28.929Z,14.90
2018-12-19T00:35:00.043Z,15.95
2018-12-19T00:35:31.161Z,16.60
2018-12-19T00:36:02.283Z,16.25
2018-12-19T00:36:33.396Z,16.42
2018-12-19T00:37:04.520Z,16.25
2018-12-19T00:37:35.687Z,15.55
2018-12-19T00:38:06.811Z,16.17
2018-12-19T00:38:37.966Z,16.20
2018-12-19T00:39:09.663Z,16.55
2018-12-19T00:39:41.105Z,16.02
2018-12-19T00:40:12.208Z,17.55
2018-12-19T00:40:43.314Z,16.62
2018-12-19T00:41:14.422Z,14.98
2018-12-19T00:41:45.520Z,14.30
2018-12-19T00:42:16.629Z,15.08
2018-12-19T00:42:47.741Z,14.75
2018-12-19T00:43:18.854Z,15.90
2018-12-19T00:43:50.005Z,14.30
2018-12-19T00:44:22.453Z,14.95
2018-12-19T00:44:53.737Z,14.43
2018-12-19T00:45:24.862Z,15.18
2018-12-19T00:45:55.968Z,14.80
2018-12-19T00:46:27.063Z,15.30
2018-12-19T00:46:58.169Z,13.30
2018-12-19T00:47:29.404Z,14.93
2018-12-19T00:48:00.520Z,14.05
2018-12-19T00:48:31.656Z,14.15
2018-12-19T00:49:02.753Z,12.40
2018-12-19T00:49:33.879Z,12.50
2018-12-19T00:50:05.033Z,13.50
2018-12-19T00:50:36.137Z,15.28
2018-12-19T00:51:07.245Z,14.07
2018-12-19T00:51:38.356Z,15.10
2018-12-19T00:52:09.578Z,14.50
2018-12-19T00:52:40.704Z,14.07
2018-12-19T00:53:11.913Z,13.90
2018-12-19T00:53:43.021Z,12.45
2018-12-19T00:54:14.160Z,12.78
2018-12-19T00:54:45.274Z,13.20
2018-12-19T00:55:16.416Z,12.85
2018-12-19T00:55:47.541Z,13.65
2018-12-19T00:56:18.680Z,13.98
2018-12-19T00:56:49.783Z,14.30
2018-12-19T00:57:20.933Z,13.95
2018-12-19T00:57:52.041Z,13.80
2018-12-19T00:58:23.153Z,12.60
2018-12-19T00:58:54.271Z,13.93
2018-12-19T00:59:25.380Z,14.05
2018-12-19T00:59:56.489Z,13.83
2018-12-19T01:00:27.597Z,12.63
2018-12-19T01:00:58.737Z,13.32
2018-12-19T01:01:29.845Z,13.93
2018-12-19T01:02:00.960Z,13.53
2018-12-19T01:02:32.146Z,12.25
2018-12-19T01:03:03.248Z,11.93
2018-12-19T01:03:34.347Z,13.85
2018-12-19T01:04:05.451Z,13.90
2018-12-19T01:04:36.579Z,14.00
2018-12-19T01:05:07.703Z,14.03
2018-12-19T01:05:38.936Z,13.20
2018-12-19T01:06:10.046Z,14.65
2018-12-19T01:06:41.162Z,14.25
2018-12-19T01:07:12.265Z,12.60
2018-12-19T01:07:43.400Z,13.80
2018-12-19T01:08:14.506Z,14.73
2018-12-19T01:08:45.625Z,14.68
2018-12-19T01:09:16.769Z,13.68
2018-12-19T01:09:47.890Z,14.40
2018-12-19T01:10:18.992Z,14.28
2018-12-19T01:10:50.135Z,13.50
2018-12-19T01:11:21.248Z,12.53
2018-12-19T01:11:52.362Z,13.30
2018-12-19T01:12:23.467Z,14.47
2018-12-19T01:12:54.599Z,13.98
2018-12-19T01:13:25.716Z,12.78
2018-12-19T01:13:56.833Z,13.68
2018-12-19T01:14:27.985Z,13.43
2018-12-19T01:14:59.097Z,12.70
2018-12-19T01:15:30.212Z,13.70
2018-12-19T01:16:01.313Z,13.50
2018-12-19T01:16:32.432Z,12.60
2018-12-19T01:17:03.585Z,13.55
2018-12-19T01:17:34.693Z,14.43
2018-12-19T01:18:05.802Z,12.68
2018-12-19T01:18:36.953Z,12.58
2018-12-19T01:19:08.061Z,13.35
2018-12-19T01:19:39.213Z,14.00
2018-12-19T01:20:10.331Z,12.75
2018-12-19T01:20:41.449Z,13.83
2018-12-19T01:21:12.609Z,11.97
2018-12-19T01:21:43.750Z,12.53
2018-12-19T01:22:14.862Z,12.78
2018-12-19T01:22:45.968Z,12.75
2018-12-19T01:23:17.076Z,13.22
2018-12-19T01:23:48.202Z,12.78
2018-12-19T01:24:19.341Z,14.00
2018-12-19T01:24:50.443Z,13.48
2018-12-19T01:25:21.612Z,12.95
2018-12-19T01:25:52.776Z,13.90
2018-12-19T01:26:23.937Z,13.75
2018-12-19T01:26:55.117Z,12.23
2018-12-19T01:27:26.244Z,13.03
2018-12-19T01:27:57.352Z,13.03
2018-12-19T01:28:28.494Z,11.18
2018-12-19T01:28:59.608Z,12.45
2018-12-19T01:29:30.711Z,12.20
2018-12-19T01:30:01.861Z,12.45
2018-12-19T01:30:32.972Z,12.80
2018-12-19T01:31:04.099Z,12.93
2018-12-19T01:31:35.213Z,11.65
2018-12-19T01:32:06.326Z,12.10
2018-12-19T01:32:37.438Z,12.05
2018-12-19T01:33:08.537Z,13.55
2018-12-19T01:33:39.671Z,11.88
2018-12-19T01:34:10.812Z,11.35
2018-12-19T01:34:41.929Z,12.47
2018-12-19T01:35:13.071Z,11.65
2018-12-19T01:35:44.177Z,12.75
2018-12-19T01:36:15.296Z,12.05
2018-12-19T01:36:46.404Z,12.82
2018-12-19T01:37:17.549Z,12.13
2018-12-19T01:37:48.679Z,13.25
2018-12-19T01:38:19.792Z,13.15
2018-12-19T01:38:50.913Z,11.45
2018-12-19T01:39:22.571Z,12.55
2018-12-19T01:39:53.942Z,12.40
2018-12-19T01:40:25.052Z,12.30
2018-12-19T01:40:56.153Z,12.05
2018-12-19T01:41:27.267Z,11.55
2018-12-19T01:41:58.409Z,9.48
2018-12-19T01:42:29.519Z,12.23
2018-12-19T01:43:00.638Z,12.30
2018-12-19T01:43:31.735Z,11.10
2018-12-19T01:44:02.844Z,10.40
2018-12-19T01:44:33.962Z,11.95
2018-12-19T01:45:05.075Z,12.63
2018-12-19T01:45:36.175Z,12.00
2018-12-19T01:46:07.298Z,12.95
2018-12-19T01:46:38.415Z,11.65
2018-12-19T01:47:09.573Z,12.53
2018-12-19T01:47:40.692Z,12.00
2018-12-19T01:48:11.804Z,10.88
2018-12-19T01:48:42.926Z,11.63
2018-12-19T01:49:14.040Z,11.88
2018-12-19T01:49:45.154Z,12.18
2018-12-19T01:50:16.287Z,13.55
2018-12-19T01:50:47.409Z,12.50
2018-12-19T01:51:18.505Z,12.80
2018-12-19T01:51:49.612Z,12.90
2018-12-19T01:52:20.756Z,13.58
2018-12-19T01:52:51.857Z,12.00
2018-12-19T01:53:22.969Z,13.22
2018-12-19T01:53:54.072Z,11.78
2018-12-19T01:54:25.185Z,12.78
2018-12-19T01:54:56.292Z,11.75
2018-12-19T01:55:27.394Z,11.45
2018-12-19T01:55:58.497Z,13.20
2018-12-19T01:56:29.601Z,13.25
2018-12-19T01:57:00.703Z,13.03
2018-12-19T01:57:31.850Z,13.30
2018-12-19T01:58:02.965Z,13.43
2018-12-19T01:58:34.079Z,12.68
2018-12-19T01:59:05.195Z,12.33
2018-12-19T01:59:36.304Z,12.35
2018-12-19T02:00:07.401Z,12.00
2018-12-19T02:00:38.508Z,13.58
2018-12-19T02:01:09.625Z,13.60
2018-12-19T02:01:40.773Z,12.35
2018-12-19T02:02:11.887Z,13.00
2018-12-19T02:02:43.005Z,13.18
2018-12-19T02:03:14.149Z,13.30
2018-12-19T02:03:45.272Z,12.30
2018-12-19T02:04:16.395Z,12.10
2018-12-19T02:04:47.495Z,13.22
2018-12-19T02:05:18.621Z,12.13
2018-12-19T02:05:49.721Z,12.50
2018-12-19T02:06:20.826Z,13.58
2018-12-19T02:06:51.929Z,14.75
2018-12-19T02:07:23.040Z,13.22
2018-12-19T02:07:54.193Z,14.00
2018-12-19T02:08:25.302Z,13.10
2018-12-19T02:08:56.404Z,12.82
2018-12-19T02:09:29.087Z,12.80
2018-12-19T02:10:00.358Z,12.58
2018-12-19T02:10:31.468Z,12.98
2018-12-19T02:11:02.577Z,13.15
2018-12-19T02:11:33.697Z,14.20
2018-12-19T02:12:04.893Z,13.30
2018-12-19T02:12:36.006Z,13.83
2018-12-19T02:13:07.112Z,13.93
2018-12-19T02:13:38.225Z,14.13
2018-12-19T02:14:09.328Z,14.10
2018-12-19T02:14:40.482Z,14.20
2018-12-19T02:15:11.665Z,13.43
2018-12-19T02:15:42.773Z,13.88
2018-12-19T02:16:13.894Z,12.40
2018-12-19T02:16:45.056Z,14.15
2018-12-19T02:17:16.276Z,13.72
2018-12-19T02:17:47.401Z,13.58
2018-12-19T02:18:18.520Z,12.40
2018-12-19T02:18:49.625Z,13.50
2018-12-19T02:19:20.724Z,12.30
2018-12-19T02:19:51.835Z,12.75
2018-12-19T02:20:22.959Z,13.98
2018-12-19T02:20:54.098Z,13.62
2018-12-19T02:21:25.216Z,13.40
2018-12-19T02:21:56.360Z,13.45
2018-12-19T02:22:27.459Z,12.70
2018-12-19T02:22:58.558Z,13.75
2018-12-19T02:23:29.667Z,13.93
2018-12-19T02:24:00.803Z,13.90
2018-12-19T02:24:31.915Z,12.07
2018-12-19T02:25:03.036Z,12.23
2018-12-19T02:25:34.152Z,14.33
2018-12-19T02:26:05.273Z,14.40
2018-12-19T02:26:36.375Z,13.70
2018-12-19T02:27:07.495Z,12.78
2018-12-19T02:27:38.594Z,13.30
2018-12-19T02:28:09.737Z,11.97
2018-12-19T02:28:40.840Z,13.30
2018-12-19T02:29:12.071Z,13.40
2018-12-19T02:29:43.216Z,13.28
2018-12-19T02:30:14.329Z,13.20
2018-12-19T02:30:45.436Z,13.18
2018-12-19T02:31:16.539Z,13.40
2018-12-19T02:31:47.648Z,13.83
2018-12-19T02:32:18.761Z,14.07
2018-12-19T02:32:49.872Z,14.25
2018-12-19T02:33:20.991Z,14.40
2018-12-19T02:33:52.115Z,13.85
2018-12-19T02:34:23.209Z,13.80
2018-12-19T02:34:54.353Z,14.40
2018-12-19T02:35:25.458Z,14.50
2018-12-19T02:35:56.568Z,14.23
2018-12-19T02:36:27.690Z,14.58
2018-12-19T02:36:58.827Z,13.18
2018-12-19T02:37:29.934Z,13.53
2018-12-19T02:38:01.178Z,13.68
2018-12-19T02:38:32.280Z,13.15
2018-12-19T02:39:03.391Z,12.90
2018-12-19T02:39:36.333Z,12.53
2018-12-19T02:40:07.653Z,14.05
2018-12-19T02:40:39.719Z,15.65
2018-12-19T02:41:10.855Z,13.25
2018-12-19T02:41:41.971Z,14.65
2018-12-19T02:42:13.092Z,14.15
2018-12-19T02:42:44.221Z,14.55
2018-12-19T02:43:15.376Z,14.07
2018-12-19T02:43:46.481Z,14.80
2018-12-19T02:44:17.596Z,14.98
2018-12-19T02:44:48.717Z,14.05
2018-12-19T02:45:19.828Z,13.62
2018-12-19T02:45:50.980Z,14.10
2018-12-19T02:46:22.134Z,14.00
2018-12-19T02:46:53.237Z,14.45
2018-12-19T02:47:24.340Z,14.50
2018-12-19T02:47:55.446Z,14.53
2018-12-19T02:48:26.566Z,14.25
2018-12-19T02:48:57.667Z,15.03
2018-12-19T02:49:28.780Z,15.43
2018-12-19T02:49:59.890Z,15.18
2018-12-19T02:50:31.006Z,14.75
2018-12-19T02:51:02.102Z,12.37
2018-12-19T02:51:33.266Z,15.15
2018-12-19T02:52:04.375Z,15.98
2018-12-19T02:52:35.482Z,14.30
2018-12-19T02:53:06.621Z,15.00
2018-12-19T02:53:37.723Z,14.83
2018-12-19T02:54:08.842Z,14.60
2018-12-19T02:54:39.980Z,14.55
2018-12-19T02:55:11.092Z,13.78
2018-12-19T02:55:42.416Z,14.38
2018-12-19T02:56:13.532Z,14.93
2018-12-19T02:56:45.366Z,14.75
2018-12-19T02:57:16.478Z,13.18
2018-12-19T02:57:47.682Z,14.35
2018-12-19T02:58:18.798Z,14.60
2018-12-19T02:58:49.916Z,13.62
2018-12-19T02:59:21.144Z,14.35
2018-12-19T02:59:52.316Z,13.50
2018-12-19T03:00:23.457Z,14.73
2018-12-19T03:00:54.570Z,14.23
2018-12-19T03:01:25.695Z,14.53
2018-12-19T03:01:56.828Z,13.78
2018-12-19T03:02:27.952Z,14.28
2018-12-19T03:02:59.111Z,15.38
2018-12-19T03:03:30.325Z,14.47
2018-12-19T03:04:01.453Z,14.50
2018-12-19T03:04:33.343Z,15.05
2018-12-19T03:05:04.513Z,14.03
2018-12-19T03:05:35.667Z,14.43
2018-12-19T03:06:06.783Z,13.45
2018-12-19T03:06:37.886Z,13.00
2018-12-19T03:07:09.099Z,11.95
2018-12-19T03:07:40.229Z,12.85
2018-12-19T03:08:11.354Z,12.88
2018-12-19T03:08:42.470Z,13.35
2018-12-19T03:09:13.644Z,12.28
2018-12-19T03:09:44.819Z,12.65
2018-12-19T03:10:15.940Z,12.80
2018-12-19T03:10:47.079Z,12.53
2018-12-19T03:11:18.218Z,12.88
2018-12-19T03:11:49.344Z,13.53
2018-12-19T03:12:20.460Z,13.20
2018-12-19T03:12:51.563Z,13.93
2018-12-19T03:13:22.671Z,13.80
2018-12-19T03:13:53.833Z,12.70
2018-12-19T03:14:25.008Z,12.63
2018-12-19T03:14:56.171Z,12.73
2018-12-19T03:15:27.301Z,11.55
2018-12-19T03:15:58.425Z,13.55
2018-12-19T03:16:29.544Z,12.98
2018-12-19T03:17:00.695Z,13.43
2018-12-19T03:17:31.800Z,13.20
2018-12-19T03:18:03.794Z,13.62
2018-12-19T03:18:34.924Z,13.58
2018-12-19T03:19:06.075Z,12.35
2018-12-19T03:19:37.199Z,13.40
2018-12-19T03:20:08.361Z,13.28
2018-12-19T03:20:39.471Z,13.43
2018-12-19T03:21:10.637Z,11.70
2018-12-19T03:21:41.748Z,14.00
2018-12-19T03:22:12.865Z,13.62
2018-12-19T03:22:43.967Z,12.73
2018-12-19T03:23:15.065Z,12.58
2018-12-19T03:23:46.206Z,13.28
2018-12-19T03:24:17.341Z,13.10
2018-12-19T03:24:48.448Z,12.90
2018-12-19T03:25:20.098Z,13.50
2018-12-19T03:25:51.253Z,14.20
2018-12-19T03:26:22.444Z,12.43
2018-12-19T03:26:53.675Z,13.48
2018-12-19T03:27:24.818Z,13.48
2018-12-19T03:27:55.941Z,13.43
2018-12-19T03:28:27.117Z,13.50
2018-12-19T03:28:58.301Z,12.43
2018-12-19T03:29:29.480Z,12.58
2018-12-19T03:30:01.593Z,12.65
2018-12-19T03:30:32.772Z,13.10
2018-12-19T03:31:03.990Z,14.18
2018-12-19T03:31:35.221Z,13.10
2018-12-19T03:32:06.481Z,14.20
2018-12-19T03:32:37.672Z,13.88
2018-12-19T03:33:08.848Z,13.62
2018-12-19T03:33:40.010Z,13.48
2018-12-19T03:34:11.101Z,11.73
2018-12-19T03:34:42.259Z,12.93
2018-12-19T03:35:13.400Z,12.88
2018-12-19T03:35:44.609Z,12.90
2018-12-19T03:36:16.564Z,13.98
2018-12-19T03:36:48.713Z,13.50
2018-12-19T03:37:19.943Z,13.18
2018-12-19T03:37:51.101Z,13.28
2018-12-19T03:38:22.212Z,13.85
2018-12-19T03:38:53.497Z,14.03
2018-12-19T03:39:24.617Z,12.50
2018-12-19T03:39:55.734Z,13.68
2018-12-19T03:40:26.925Z,13.90
2018-12-19T03:40:58.045Z,13.80
2018-12-19T03:41:29.224Z,13.35
2018-12-19T03:42:00.337Z,12.23
2018-12-19T03:42:31.465Z,13.50
2018-12-19T03:43:02.625Z,13.30
2018-12-19T03:43:33.803Z,13.80
2018-12-19T03:44:04.960Z,13.50
2018-12-19T03:44:36.094Z,14.33
2018-12-19T03:45:07.214Z,14.23
2018-12-19T03:45:39.401Z,13.43
2018-12-19T03:46:10.531Z,13.00
2018-12-19T03:46:41.645Z,13.45
2018-12-19T03:47:12.810Z,13.88
2018-12-19T03:47:43.941Z,13.55
2018-12-19T03:48:15.046Z,13.22
2018-12-19T03:48:46.197Z,13.93
2018-12-19T03:49:17.305Z,13.58
2018-12-19T03:49:48.443Z,13.08
2018-12-19T03:50:19.562Z,13.40
2018-12-19T03:50:50.764Z,14.53
2018-12-19T03:51:21.963Z,13.13
2018-12-19T03:51:53.063Z,13.35
2018-12-19T03:52:24.234Z,14.98
2018-12-19T03:52:55.370Z,14.43
2018-12-19T03:53:26.489Z,14.65
2018-12-19T03:53:57.595Z,13.22
2018-12-19T03:54:28.813Z,14.40
2018-12-19T03:55:00.047Z,12.78
2018-12-19T03:55:31.165Z,13.25
2018-12-19T03:56:02.272Z,13.55
2018-12-19T03:56:34.225Z,13.43
2018-12-19T03:57:05.369Z,13.40
2018-12-19T03:57:36.523Z,12.63
2018-12-19T03:58:07.709Z,13.68
2018-12-19T03:58:38.859Z,12.93
2018-12-19T03:59:09.975Z,13.28
2018-12-19T03:59:41.295Z,13.43
2018-12-19T04:00:12.740Z,12.65
2018-12-19T04:00:43.857Z,12.73
2018-12-19T04:01:15.009Z,13.55
2018-12-19T04:01:46.123Z,14.38
2018-12-19T04:02:17.286Z,13.32
2018-12-19T04:02:48.417Z,11.78
2018-12-19T04:03:19.550Z,12.88
2018-12-19T04:03:50.702Z,13.43
2018-12-19T04:04:21.824Z,13.32
2018-12-19T04:04:52.980Z,12.40
2018-12-19T04:05:24.097Z,12.20
2018-12-19T04:05:55.237Z,12.05
2018-12-19T04:06:26.360Z,12.78
2018-12-19T04:06:57.483Z,11.97
2018-12-19T04:07:28.620Z,12.88
2018-12-19T04:07:59.735Z,13.28
2018-12-19T04:08:30.899Z,13.48
2018-12-19T04:09:02.052Z,12.03
2018-12-19T04:09:33.178Z,13.75
2018-12-19T04:10:04.321Z,12.65
2018-12-19T04:10:35.433Z,13.62
2018-12-19T04:11:06.546Z,11.73
2018-12-19T04:11:37.681Z,12.50
2018-12-19T04:12:08.828Z,12.50
2018-12-19T04:12:39.997Z,12.18
2018-12-19T04:13:11.100Z,11.45
2018-12-19T04:13:42.200Z,12.05
2018-12-19T04:14:13.392Z,13.20
2018-12-19T04:14:44.569Z,12.37
2018-12-19T04:15:15.760Z,12.13
2018-12-19T04:15:46.912Z,11.57
2018-12-19T04:16:18.053Z,13.00
2018-12-19T04:16:49.261Z,11.48
2018-12-19T04:17:20.458Z,12.55
2018-12-19T04:17:51.589Z,12.45
2018-12-19T04:18:22.766Z,12.60
2018-12-19T04:18:53.885Z,12.40
2018-12-19T04:19:25.025Z,11.97
2018-12-19T04:19:56.187Z,12.05
2018-12-19T04:20:27.312Z,12.88
2018-12-19T04:20:58.511Z,12.95
2018-12-19T04:21:29.616Z,13.22
2018-12-19T04:22:00.819Z,12.63
2018-12-19T04:22:33.195Z,11.90
2018-12-19T04:23:04.441Z,11.95
2018-12-19T04:23:35.599Z,13.78
2018-12-19T04:24:06.778Z,12.10
2018-12-19T04:24:37.942Z,12.23
2018-12-19T04:25:09.124Z,12.47
2018-12-19T04:25:40.268Z,12.70
2018-12-19T04:26:11.430Z,12.63
2018-12-19T04:26:42.615Z,12.15
2018-12-19T04:27:13.780Z,12.07
2018-12-19T04:27:44.948Z,13.00
2018-12-19T04:28:16.176Z,13.22
2018-12-19T04:28:47.377Z,10.78
2018-12-19T04:29:18.832Z,11.78
2018-12-19T04:29:50.020Z,12.78
2018-12-19T04:30:21.237Z,13.40
2018-12-19T04:30:52.624Z,13.22
2018-12-19T04:31:23.831Z,12.75
2018-12-19T04:31:55.702Z,12.73
2018-12-19T04:32:26.837Z,12.45
2018-12-19T04:32:58.835Z,12.28
2018-12-19T04:33:30.000Z,12.18
2018-12-19T04:34:01.189Z,13.48
2018-12-19T04:34:32.382Z,12.45
2018-12-19T04:35:03.554Z,13.32
2018-12-19T04:35:35.556Z,13.08
2018-12-19T04:36:06.687Z,12.68
2018-12-19T04:36:37.977Z,13.50
2018-12-19T04:37:09.092Z,12.33
2018-12-19T04:37:40.277Z,13.20
2018-12-19T04:38:12.152Z,14.07
2018-12-19T04:38:44.088Z,13.43
2018-12-19T04:39:15.244Z,13.38
2018-12-19T04:39:46.393Z,13.32
2018-12-19T04:40:17.538Z,13.53
2018-12-19T04:40:48.654Z,12.80
2018-12-19T04:41:19.765Z,13.72
2018-12-19T04:41:50.960Z,13.53
2018-12-19T04:42:22.075Z,13.30
2018-12-19T04:42:53.244Z,13.22
2018-12-19T04:43:24.751Z,13.22
2018-12-19T04:43:55.893Z,12.82
2018-12-19T04:44:27.038Z,12.63
2018-12-19T04:44:58.160Z,13.48
2018-12-19T04:45:29.315Z,14.20
2018-12-19T04:46:00.429Z,13.50
2018-12-19T04:46:31.551Z,11.93
2018-12-19T04:47:02.733Z,13.03
2018-12-19T04:47:33.865Z,12.68
2018-12-19T04:48:04.988Z,12.82
2018-12-19T04:48:36.118Z,13.80
2018-12-19T04:49:07.268Z,13.70
2018-12-19T04:49:38.393Z,13.28
2018-12-19T04:50:09.513Z,12.75
2018-12-19T04:50:40.631Z,15.20
2018-12-19T04:51:11.745Z,13.43
2018-12-19T04:51:42.907Z,13.68
2018-12-19T04:52:14.059Z,13.95
2018-12-19T04:52:45.184Z,12.25
2018-12-19T04:53:16.322Z,13.40
2018-12-19T04:53:47.462Z,13.72
2018-12-19T04:54:18.609Z,14.07
2018-12-19T04:54:49.724Z,13.68
2018-12-19T04:55:20.902Z,14.45
2018-12-19T04:55:52.017Z,13.90
2018-12-19T04:56:23.213Z,14.00
2018-12-19T04:56:54.369Z,13.75
2018-12-19T04:57:25.521Z,13.40
2018-12-19T04:57:56.677Z,14.63
2018-12-19T04:58:27.852Z,12.90
2018-12-19T04:58:59.005Z,13.43
2018-12-19T04:59:30.125Z,13.68
2018-12-19T05:00:01.311Z,13.70
2018-12-19T05:00:32.458Z,13.28
2018-12-19T05:01:03.838Z,10.80
2018-12-19T05:01:34.961Z,11.65
2018-12-19T05:02:06.092Z,12.00
2018-12-19T05:02:37.303Z,14.68
2018-12-19T05:03:08.436Z,14.55
2018-12-19T05:03:39.647Z,14.73
2018-12-19T05:04:10.818Z,13.13
2018-12-19T05:04:41.947Z,13.65
2018-12-19T05:05:13.061Z,13.83
2018-12-19T05:05:44.207Z,13.00
2018-12-19T05:06:15.361Z,14.20
2018-12-19T05:06:46.485Z,13.85
2018-12-19T05:07:17.646Z,13.83
2018-12-19T05:07:49.321Z,13.38
2018-12-19T05:08:20.476Z,13.03
2018-12-19T05:08:51.603Z,12.73
2018-12-19T05:09:22.742Z,14.58
2018-12-19T05:09:53.856Z,13.48
2018-12-19T05:10:24.998Z,14.35
2018-12-19T05:10:56.118Z,13.13
2018-12-19T05:11:27.233Z,13.28
2018-12-19T05:11:58.385Z,13.22
2018-12-19T05:12:29.556Z,13.45
2018-12-19T05:13:01.418Z,15.13
2018-12-19T05:13:32.698Z,13.13
2018-12-19T05:14:03.820Z,13.78
2018-12-19T05:14:34.979Z,14.38
2018-12-19T05:15:06.084Z,12.75
2018-12-19T05:15:37.229Z,14.28
2018-12-19T05:16:08.406Z,14.35
2018-12-19T05:16:39.598Z,13.48
2018-12-19T05:17:10.730Z,13.25
2018-12-19T05:17:41.840Z,14.47
2018-12-19T05:18:12.962Z,14.07
2018-12-19T05:18:44.081Z,13.93
2018-12-19T05:19:15.204Z,14.05
2018-12-19T05:19:46.358Z,14.65
2018-12-19T05:20:17.505Z,14.38
2018-12-19T05:20:48.648Z,13.58
2018-12-19T05:21:19.819Z,13.30
2018-12-19T05:21:50.981Z,13.65
2018-12-19T05:22:22.134Z,12.45
2018-12-19T05:22:53.261Z,14.53
2018-12-19T05:23:24.479Z,13.95
2018-12-19T05:23:55.608Z,13.22
2018-12-19T05:24:26.753Z,14.43
2018-12-19T05:24:57.924Z,14.87
2018-12-19T05:25:29.074Z,14.00
2018-12-19T05:26:00.229Z,14.07
2018-12-19T05:26:31.389Z,13.22
2018-12-19T05:27:02.510Z,13.98
2018-12-19T05:27:33.701Z,14.25
2018-12-19T05:28:04.872Z,14.60
2018-12-19T05:28:35.994Z,14.53
2018-12-19T05:29:07.229Z,15.00
2018-12-19T05:29:38.354Z,14.83
2018-12-19T05:30:09.470Z,14.20
2018-12-19T05:30:40.586Z,14.03
2018-12-19T05:31:11.703Z,14.90
2018-12-19T05:31:42.863Z,14.70
2018-12-19T05:32:14.014Z,13.80
2018-12-19T05:32:45.210Z,14.23
2018-12-19T05:33:16.446Z,13.85
2018-12-19T05:33:47.556Z,15.25
2018-12-19T05:34:18.676Z,14.30
2018-12-19T05:34:49.847Z,13.95
2018-12-19T05:35:21.003Z,14.78
2018-12-19T05:35:52.173Z,14.63
2018-12-19T05:36:23.315Z,15.30
2018-12-19T05:36:54.504Z,14.45
2018-12-19T05:37:25.624Z,15.43
2018-12-19T05:37:56.784Z,15.03
2018-12-19T05:38:27.929Z,14.95
2018-12-19T05:38:59.137Z,15.28
2018-12-19T05:39:30.326Z,15.08
2018-12-19T05:40:01.455Z,15.58
2018-12-19T05:40:32.638Z,15.68
2018-12-19T05:41:03.841Z,14.43
2018-12-19T05:41:34.956Z,15.25
2018-12-19T05:42:06.079Z,15.35
2018-12-19T05:42:37.232Z,15.83
2018-12-19T05:43:08.412Z,15.88
2018-12-19T05:43:39.570Z,16.50
2018-12-19T05:44:10.726Z,15.98
2018-12-19T05:44:41.887Z,15.55
2018-12-19T05:45:13.026Z,15.48
2018-12-19T05:45:44.140Z,16.52
2018-12-19T05:46:15.313Z,15.08
2018-12-19T05:46:46.469Z,15.63
2018-12-19T05:47:17.595Z,16.23
2018-12-19T05:47:48.724Z,16.50
2018-12-19T05:48:19.875Z,17.27
2018-12-19T05:48:51.008Z,16.17
2018-12-19T05:49:22.185Z,17.07
2018-12-19T05:49:53.377Z,16.85
2018-12-19T05:50:24.514Z,16.75
2018-12-19T05:50:55.671Z,16.37
2018-12-19T05:51:26.808Z,16.65
2018-12-19T05:51:58.073Z,18.40
2018-12-19T05:52:29.215Z,17.27
2018-12-19T05:53:00.352Z,17.67
2018-12-19T05:53:31.496Z,16.97
2018-12-19T05:54:02.620Z,17.75
2018-12-19T05:54:33.749Z,18.37
2018-12-19T05:55:04.892Z,17.67
2018-12-19T05:55:36.016Z,18.35
2018-12-19T05:56:08.229Z,18.32
2018-12-19T05:56:39.406Z,17.35
2018-12-19T05:57:10.570Z,17.37
2018-12-19T05:57:41.725Z,16.35
2018-12-19T05:58:12.900Z,16.70
2018-12-19T05:58:44.081Z,16.32
2018-12-19T05:59:16.197Z,16.77
2018-12-19T05:59:47.426Z,17.57
2018-12-19T06:00:18.576Z,16.55
2018-12-19T06:00:50.584Z,18.62
2018-12-19T06:01:21.807Z,18.25
2018-12-19T06:01:53.839Z,18.67
2018-12-19T06:02:25.071Z,15.95
2018-12-19T06:02:57.103Z,18.00
2018-12-19T06:03:28.493Z,18.02
2018-12-19T06:03:59.731Z,18.32
2018-12-19T06:04:32.023Z,17.62
2018-12-19T06:05:04.319Z,17.50
2018-12-19T06:05:35.625Z,17.02
2018-12-19T06:06:06.975Z,17.30
2018-12-19T06:06:38.275Z,16.27
2018-12-19T06:07:10.580Z,16.15
2018-12-19T06:07:41.909Z,17.05
2018-12-19T06:08:13.953Z,16.85
2018-12-19T06:08:46.266Z,16.27
2018-12-19T06:09:17.532Z,16.57
2018-12-19T06:09:48.862Z,16.75
2018-12-19T06:10:26.020Z,16.35
2018-12-19T06:10:53.446Z,17.05
2018-12-19T06:11:24.781Z,14.98
2018-12-19T06:11:56.502Z,16.00
2018-12-19T06:12:27.794Z,16.20
2018-12-19T06:12:59.020Z,16.05
2018-12-19T06:13:30.222Z,16.80
2018-12-19T06:14:01.527Z,18.02
2018-12-19T06:14:33.478Z,17.67
2018-12-19T06:15:04.895Z,15.58
2018-12-19T06:15:38.151Z,16.42
2018-12-19T06:16:10.681Z,22.02
2018-12-19T06:16:42.002Z,16.62
2018-12-19T06:17:13.775Z,24.63
2018-12-19T06:17:46.211Z,15.83
2018-12-19T06:18:17.482Z,17.30
2018-12-19T06:18:48.634Z,17.25
2018-12-19T06:19:20.661Z,17.20
2018-12-19T06:19:51.844Z,15.10
2018-12-19T06:20:22.983Z,16.17
2018-12-19T06:20:54.127Z,15.70
2018-12-19T06:21:25.261Z,14.83
2018-12-19T06:21:56.435Z,17.17
2018-12-19T06:22:27.552Z,17.62
2018-12-19T06:22:58.685Z,16.32
2018-12-19T06:23:29.795Z,16.90
2018-12-19T06:24:00.912Z,17.48
2018-12-19T06:24:32.059Z,17.48
2018-12-19T06:25:03.190Z,16.87
2018-12-19T06:25:34.303Z,16.60
2018-12-19T06:26:05.409Z,18.30
2018-12-19T06:26:36.536Z,16.57
2018-12-19T06:27:07.685Z,17.77
2018-12-19T06:27:38.816Z,17.62
2018-12-19T06:28:09.951Z,16.48
2018-12-19T06:28:41.075Z,18.07
2018-12-19T06:29:12.189Z,15.23
2018-12-19T06:29:43.393Z,16.10
2018-12-19T06:30:14.516Z,17.25
2018-12-19T06:30:45.620Z,17.92
2018-12-19T06:31:16.745Z,18.92
2018-12-19T06:31:47.852Z,18.52
2018-12-19T06:32:18.960Z,17.67
2018-12-19T06:32:50.120Z,16.90
2018-12-19T06:33:21.235Z,17.85
2018-12-19T06:33:52.356Z,17.65
2018-12-19T06:34:23.542Z,17.07
2018-12-19T06:34:54.714Z,16.65
2018-12-19T06:35:25.820Z,18.42
2018-12-19T06:35:56.948Z,18.05
2018-12-19T06:36:28.070Z,17.62
2018-12-19T06:36:59.211Z,17.15
2018-12-19T06:37:30.335Z,17.95
2018-12-19T06:38:01.464Z,17.05
2018-12-19T06:38:32.596Z,18.25
2018-12-19T06:39:03.701Z,17.40
2018-12-19T06:39:34.833Z,16.27
2018-12-19T06:40:05.963Z,16.97
2018-12-19T06:40:37.130Z,18.55
2018-12-19T06:41:08.252Z,17.35
2018-12-19T06:41:39.397Z,15.75